• Join FlightAware (Why Join?)
  • Login
  • US Flag 
07:17PM EDT


 

Airport Tracker/Info


-or-


 

Live Flight TrackerFlight Track Log ✈ SWA1046 ✈ 08-May-2013 ✈ KDAL - KOKC

Flight Track Log - Related Links

Times and Time Zones

All times are in EDT time to prevent confusion due to time zone crossing. See the SWA1046 flight status page for this flight to view local times or setup timezone preferences in your user account.

Time Position Orientation Groundspeed Altitude Reporting Facility
EDT Latitude Longitude Course Direction KTS MPH feet Rate Location/Type
04:32PM 32.8167 -96.8167 128° Southeast 179 206 2,200  Level Dallas / Fort Worth TRACON
04:33PM 32.7833 -96.7667 128° Southeast 204 235 4,800 2,640 Climbing Dallas / Fort Worth TRACON
04:33PM 32.8000 -96.7167 68° East 269 310 7,000 2,580 Climbing Dallas / Fort Worth TRACON
04:35PM 32.8833 -96.7167 360° North 270 311 10,000 2,700 Climbing Dallas / Fort Worth TRACON
04:35PM 32.9500 -96.7500 337° Northwest 297 342 12,500 2,640 Climbing Dallas / Fort Worth TRACON
04:37PM 32.9833 -96.8500 292° West 343 395 15,300 1,800 Climbing Dallas / Fort Worth TRACON
04:39PM 33.2000 -96.9839 333° Northwest 370 426 19,000 1,860 Climbing Fort Worth Center
04:40PM 33.3003 -97.0356 337° Northwest 378 435 21,800 1,980 Climbing Fort Worth Center
04:41PM 33.4028 -97.0875 337° Northwest 393 452 23,000 600 Climbing Fort Worth Center
04:42PM 33.5156 -97.1019 354° North 394 453 23,000  Level Fort Worth Center
04:43PM 33.6261 -97.0892 North 399 459 23,000  Level Fort Worth Center
04:44PM 33.7408 -97.0739 North 409 471 23,000  Level Fort Worth Center
04:45PM 33.8514 -97.0608 North 404 465 23,000  Level Fort Worth Center
04:46PM 33.9683 -97.0478 North 404 465 23,000  Level Fort Worth Center
04:47PM 34.0811 -97.0475 360° North 404 465 23,000  Level Fort Worth Center
04:48PM 34.1939 -97.0847 345° North 404 465 23,000 -240 Level Fort Worth Center
04:50PM 34.4192 -97.1517 346° North 414 476 22,300 -600 Descending Fort Worth Center
04:51PM 34.5342 -97.1842 347° North 419 482 21,300 -1,020 Descending Fort Worth Center
04:52PM 34.6489 -97.2167 347° North 419 482 20,300 -1,080 Descending Fort Worth Center
04:52PM 34.7011 -97.2317 347° North 414 476 19,800 -1,020 Descending Fort Worth Center
04:53PM 34.7594 -97.2492 346° North 414 476 19,300 -1,020 Descending Fort Worth Center
04:53PM 34.8181 -97.2669 346° North 408 470 18,700 -1,140 Descending Fort Worth Center
04:54PM 34.8700 -97.2844 345° North 414 476 18,200 -2,220 Descending Fort Worth Center
04:55PM 34.9286 -97.3047 344° North 403 464 16,500 4,800 Descending Fort Worth Center
04:55PM 34.9767 -97.3197 346° North 408 470 23,000 -4,560 Climbing Fort Worth Center
04:56PM 35.0411 -97.3450 342° North 389 448 11,900 -12,600 Descending Fort Worth Center
04:56PM 35.0789 -97.3578 345° North 396 456 10,400 -1,980 Descending Fort Worth Center
04:57PM 35.1456 -97.3856 341° North 367 422 9,700 -840 Descending Fort Worth Center
04:57PM 35.1747 -97.3933 348° North 373 429 9,600 -1,020 Descending Fort Worth Center
04:58PM 35.2289 -97.4136 343° North 292 336 8,700 -1,320 Descending Fort Worth Center
04:58PM 35.2561 -97.4211 347° North 334 384 8,300 -1,380 Descending Fort Worth Center
04:59PM 35.3083 -97.4417 342° North 293 337 7,300 -1,500 Descending Fort Worth Center
04:59PM 35.3353 -97.4492 347° North 314 361 6,800 -1,020 Descending Fort Worth Center
05:00PM 35.3894 -97.4722 341° North 275 316 6,300 -720 Descending Fort Worth Center
05:00PM 35.4042 -97.4772 345° North 299 344 6,100 -1,620 Descending Fort Worth Center
05:01PM 35.4625 -97.4825 356° North 261 300 4,700 -1,500 Descending Fort Worth Center
05:01PM 35.4750 -97.4800 North 273 314 4,600 -720 Descending Fort Worth Center
05:02PM 35.5189 -97.5106 330° Northwest 225 259 4,000 -600 Descending Fort Worth Center
05:02PM 35.5292 -97.5156 338° Northwest 253 291 4,000 -300 Level Fort Worth Center
05:03PM 35.5269 -97.5642 267° West 165 190 3,700 -780 Descending Fort Worth Center
05:04PM 35.4875 -97.5919 210° Southwest 144 166 2,700 -780 Descending Fort Worth Center
05:05PM 35.4519 -97.5919 180° South 147 169 2,300 -540 Descending Fort Worth Center
05:05PM 35.4436 -97.5919 180° South 126 145 2,100 -720 Descending Fort Worth Center
05:06PM 35.4122 -97.5919 180° South 134 154 1,600 -600 Descending Fort Worth Center
05:06PM 35.4081 -97.5919 180° South 126 145 1,500 -240 Descending Fort Worth Center
05:07PM 35.3664 -97.6019 191° South 126 145 1,300 -240 Descending Fort Worth Center